CLOSE
Current Station
Nearby Weather Stations
Active Advisory: Lakeshore Flood Advisory Active Notice: Local Storm Report

Elev 620 ft 41.78 °N, 87.74 °W | Updated 16 seconds ago

Overcast
Overcast
37.4 °F
Feels Like 30 °F
N
11.0
Wind Variable Wind from NE
Gusts 29.0 mph

Today
High -- | Low -- °F
--% Chance of Precip.
Yesterday
High -- | Low -- °F
Precip. -- in
7:22 AM 5:44 PM
Waxing Gibbous, 63% visible
Pressure 30.30 in
Visibility 10.0 miles
Clouds Mostly Cloudy 4000 ft
Overcast 4600 ft
Windchill 30 °F
Dew Point 21 °F
Humidity 52%
Rainfall -999.00 in
Snow Depth Not available.
UV 0 out of 12
Pollen .60 out of 12
Air Quality Not available.
Flu Activity Not available.
METAR KIGQ 010515Z AUTO 01018G25KT 10SM BKN040 OVC046 04/M03 A3030 RMK AO2 T00401035

More Conditions Fewer Conditions

Pressure 30.30 in
Visibility 10.0 miles
Clouds Mostly Cloudy 4000 ft
Overcast 4600 ft
Windchill 30 °F
Dew Point 21 °F
Humidity 52%
Rainfall -999.00 in
Snow Depth Not available.
UV 0 out of 12
Pollen .60 out of 12
Air Quality Not available.
Flu Activity Not available.
METAR KIGQ 010515Z AUTO 01018G25KT 10SM BKN040 OVC046 04/M03 A3030 RMK AO2 T00401035

More Conditions Fewer Conditions

10-Day Weather Forecast

Almanac

Astronomy

Nov. 01, 2014 Rise Set
Actual Time
Civil Twilight
Nautical Twilight
Astronomical Twilight
Moon
Length of Visible Light
Length of Day
Tomorrow will be .
, % of the Moon is Illuminated

Today's Extremes

State Highs State Lows

Community

WunderPhotos

Upload Photos

1,766,859 photos uploaded!

WunderBlogs® & News

Nearby

Air Quality

  Air Quality AQ Index Pollutant
Not available.

Snow Depth

Station Depth Elevation

Earthquake Activity

City Distance Mag. Time & Date
Minimum magnitude displayed is 2.5.

Coastal Water Temperatures

Place Temperature

Nearby Weather Stations